createdAt,value
2018-07-02T04:09:48.319Z,58.15
2018-07-02T04:10:13.829Z,57.87
2018-07-02T04:10:39.320Z,58.34
2018-07-02T04:11:04.844Z,58.06
2018-07-02T04:11:30.278Z,57.97
2018-07-02T04:11:55.766Z,58.34
2018-07-02T04:12:21.265Z,58.25
2018-07-02T04:12:46.813Z,58.25
2018-07-02T04:13:12.307Z,57.87
2018-07-02T04:13:37.795Z,57.68
2018-07-02T04:14:03.267Z,57.97
2018-07-02T04:14:28.761Z,57.97
2018-07-02T04:14:54.260Z,58.34
2018-07-02T04:15:19.775Z,58.25
2018-07-02T04:15:45.278Z,58.25
2018-07-02T04:16:10.777Z,58.15
2018-07-02T04:16:36.302Z,58.25
2018-07-02T04:17:01.760Z,58.44
2018-07-02T04:17:27.245Z,57.97
2018-07-02T04:17:52.728Z,57.77
2018-07-02T04:18:18.237Z,58.44
2018-07-02T04:18:43.755Z,58.15
2018-07-02T04:19:09.229Z,58.44
2018-07-02T04:19:34.734Z,58.44
2018-07-02T04:20:00.220Z,57.87
2018-07-02T04:20:25.712Z,58.34
2018-07-02T04:20:51.198Z,58.73
2018-07-02T04:21:16.674Z,57.97
2018-07-02T04:21:42.162Z,58.44
2018-07-02T04:22:07.673Z,58.44
2018-07-02T04:22:33.179Z,58.63
2018-07-02T04:22:58.641Z,58.25
2018-07-02T04:23:24.158Z,58.44
2018-07-02T04:23:49.638Z,58.25
2018-07-02T04:24:15.140Z,58.06
2018-07-02T04:24:40.625Z,58.25
2018-07-02T04:25:06.094Z,58.34
2018-07-02T04:25:31.575Z,58.34
2018-07-02T04:25:57.045Z,58.63
2018-07-02T04:26:22.522Z,58.06
2018-07-02T04:26:48.054Z,58.06
2018-07-02T04:27:13.545Z,57.87
2018-07-02T04:27:39.056Z,58.34
2018-07-02T04:28:04.522Z,57.48
2018-07-02T04:28:30.056Z,57.7
2018-07-02T04:28:55.549Z,57.2
2018-07-02T04:29:21.012Z,57.2
2018-07-02T04:29:46.555Z,57.68
2018-07-02T04:30:12.064Z,58.44
2018-07-02T04:30:37.552Z,58.28
2018-07-02T04:31:03.043Z,58.25
2018-07-02T04:31:28.538Z,58.06
2018-07-02T04:31:54.040Z,58.06
2018-07-02T04:32:19.553Z,57.97
2018-07-02T04:32:45.039Z,58.06
2018-07-02T04:33:10.541Z,58.25
2018-07-02T04:33:36.197Z,58.25
2018-07-02T04:34:01.626Z,57.87
2018-07-02T04:34:27.093Z,57.58
2018-07-02T04:34:52.625Z,57.39
2018-07-02T04:35:18.087Z,57.68
2018-07-02T04:35:43.617Z,58.15
2018-07-02T04:36:09.121Z,58.47
2018-07-02T04:36:34.561Z,58.25
2018-07-02T04:37:00.124Z,57.51
2018-07-02T04:37:25.557Z,57.23
2018-07-02T04:37:51.067Z,57.32
2018-07-02T04:38:16.557Z,57.32
2018-07-02T04:38:42.066Z,57.42
2018-07-02T04:39:07.559Z,57.32
2018-07-02T04:39:33.078Z,57.42
2018-07-02T04:39:58.559Z,56.94
2018-07-02T04:40:24.789Z,56.65
2018-07-02T04:40:49.537Z,56.3
2018-07-02T04:41:15.036Z,56.87
2018-07-02T04:41:40.546Z,56.77
2018-07-02T04:42:06.053Z,56.01
2018-07-02T04:42:31.534Z,56.59
2018-07-02T04:42:57.135Z,56.49
2018-07-02T04:43:22.496Z,56.39
2018-07-02T04:43:48.025Z,55.94
2018-07-02T04:44:13.513Z,55.94
2018-07-02T04:44:38.998Z,55.08
2018-07-02T04:45:04.473Z,54.99
2018-07-02T04:45:29.962Z,54.7
2018-07-02T04:45:55.420Z,54.6
2018-07-02T04:46:20.913Z,54.41
2018-07-02T04:46:46.445Z,54.32
2018-07-02T04:47:11.921Z,53.64
2018-07-02T04:47:37.421Z,53.77
2018-07-02T04:48:02.886Z,54.15
2018-07-02T04:48:28.396Z,53.77
2018-07-02T04:48:53.896Z,53.96
2018-07-02T04:49:19.345Z,53.89
2018-07-02T04:49:44.846Z,54.17
2018-07-02T04:50:10.331Z,53.99
2018-07-02T04:50:35.817Z,53.5
2018-07-02T04:51:01.362Z,52.83
2018-07-02T04:51:26.779Z,52.64
2018-07-02T04:51:52.274Z,52.55
2018-07-02T04:52:17.777Z,53.03
2018-07-02T04:52:43.262Z,52.83
2018-07-02T04:53:08.763Z,52.57
2018-07-02T04:53:34.239Z,52.67
2018-07-02T04:53:59.733Z,52.57
2018-07-02T04:54:25.241Z,52.09
2018-07-02T04:54:50.749Z,52.38
2018-07-02T04:55:16.258Z,52.48
2018-07-02T04:55:41.738Z,51.81
2018-07-02T04:56:07.204Z,51.9
2018-07-02T04:56:32.702Z,52
2018-07-02T04:56:58.164Z,51.71
2018-07-02T04:57:23.641Z,51.81
2018-07-02T04:57:49.131Z,52
2018-07-02T04:58:14.644Z,51.9
2018-07-02T04:58:40.082Z,51.9
2018-07-02T04:59:05.538Z,51.81
2018-07-02T04:59:31.022Z,52.09
2018-07-02T04:59:56.508Z,51.71
2018-07-02T05:00:22.219Z,51.83
2018-07-02T05:00:47.980Z,51.64
2018-07-02T05:01:13.612Z,51.93
2018-07-02T05:01:39.275Z,51.83
2018-07-02T05:02:04.735Z,51.54
2018-07-02T05:02:30.229Z,51.35
2018-07-02T05:02:55.708Z,50.96
2018-07-02T05:03:21.207Z,51.16
2018-07-02T05:03:46.716Z,50.58
2018-07-02T05:04:12.212Z,50.78
2018-07-02T05:04:37.722Z,50.87
2018-07-02T05:05:03.230Z,50.78
2018-07-02T05:05:28.725Z,50.9
2018-07-02T05:05:54.234Z,50.61
2018-07-02T05:06:19.723Z,50.9
2018-07-02T05:06:45.257Z,49.65
2018-07-02T05:07:10.771Z,49.84
2018-07-02T05:07:36.327Z,49.84
2018-07-02T05:08:01.781Z,49.74
2018-07-02T05:08:27.267Z,49.84
2018-07-02T05:08:52.803Z,49.74
2018-07-02T05:09:18.335Z,49.84
2018-07-02T05:09:43.819Z,49.74
2018-07-02T05:10:09.298Z,49.65
2018-07-02T05:10:34.851Z,49.74
2018-07-02T05:11:00.388Z,49.82
2018-07-02T05:11:25.903Z,49.43
2018-07-02T05:11:51.390Z,49.17
2018-07-02T05:12:16.879Z,49.84
2018-07-02T05:12:42.363Z,49.74
2018-07-02T05:13:07.838Z,49.52
2018-07-02T05:13:33.363Z,49.82
2018-07-02T05:13:58.837Z,49.91
2018-07-02T05:14:24.338Z,49.91
2018-07-02T05:14:49.822Z,50.1
2018-07-02T05:15:15.495Z,50.01
2018-07-02T05:15:40.767Z,49.93
2018-07-02T05:16:06.265Z,49.55
2018-07-02T05:16:31.795Z,50.13
2018-07-02T05:16:57.338Z,49.93
2018-07-02T05:17:22.769Z,49.84
2018-07-02T05:17:48.236Z,50.03
2018-07-02T05:18:13.760Z,49.93
2018-07-02T05:18:39.290Z,50.03
2018-07-02T05:19:04.791Z,49.74
2018-07-02T05:20:07.907Z,49.36
2018-07-02T05:20:33.400Z,49.17
2018-07-02T05:20:58.914Z,49.07
2018-07-02T05:21:24.447Z,49.93
2018-07-02T05:21:49.953Z,49.74
2018-07-02T05:22:15.470Z,49.65
2018-07-02T05:23:23.698Z,49.36
2018-07-02T05:23:49.191Z,48.85
2018-07-02T05:24:14.694Z,48.88
2018-07-02T05:24:40.159Z,49.26
2018-07-02T05:25:05.656Z,49.17
2018-07-02T05:25:31.137Z,49.17
2018-07-02T05:25:56.628Z,49.84
2018-07-02T05:26:22.123Z,49.84
2018-07-02T05:26:47.607Z,49.65
2018-07-02T05:27:13.096Z,49.84
2018-07-02T05:27:38.596Z,49.74
2018-07-02T05:28:04.066Z,49.46
2018-07-02T05:28:29.580Z,49.36
2018-07-02T05:28:55.067Z,49.07
2018-07-02T05:29:20.552Z,49.46
2018-07-02T05:29:46.049Z,49.36
2018-07-02T05:30:11.524Z,49.36
2018-07-02T05:30:37.021Z,49.26
2018-07-02T05:31:02.528Z,49.26
2018-07-02T05:31:28.075Z,49.07
2018-07-02T05:31:53.509Z,49.36
2018-07-02T05:32:18.979Z,48.79
2018-07-02T05:32:44.495Z,49.36
2018-07-02T05:33:09.987Z,49.36
2018-07-02T05:33:35.477Z,49.65
2018-07-02T05:34:00.964Z,49.84
2018-07-02T05:35:04.085Z,49.17
2018-07-02T05:35:29.583Z,49.26
2018-07-02T05:35:55.064Z,48.49
2018-07-02T05:36:20.574Z,48.49
2018-07-02T05:36:46.064Z,48.49
2018-07-02T05:37:11.551Z,48.43
2018-07-02T05:37:37.042Z,48.33
2018-07-02T05:38:02.517Z,48.33
2018-07-02T05:38:28.015Z,48.52
2018-07-02T05:38:53.721Z,48.23
2018-07-02T05:39:19.008Z,47.94
2018-07-02T05:39:44.498Z,48.04
2018-07-02T05:40:09.989Z,48.13
2018-07-02T05:40:35.523Z,47.94
2018-07-02T05:41:01.023Z,47.94
2018-07-02T05:41:26.578Z,47.94
2018-07-02T05:41:52.047Z,48.23
2018-07-02T05:42:17.518Z,48.13
2018-07-02T05:42:43.077Z,48.33
2018-07-02T05:43:08.571Z,47.36
2018-07-02T05:43:34.122Z,46.89
2018-07-02T05:43:59.605Z,47.27
2018-07-02T05:44:25.134Z,47.17
2018-07-02T05:44:50.678Z,47.36
2018-07-02T05:45:16.219Z,46.79
2018-07-02T05:45:41.685Z,47.27
2018-07-02T05:46:07.201Z,47.46
2018-07-02T05:46:32.702Z,47.17
2018-07-02T05:46:58.248Z,47.27
2018-07-02T05:47:23.787Z,47.3
2018-07-02T05:47:49.297Z,47.2
2018-07-02T05:48:14.778Z,47
2018-07-02T05:48:40.421Z,46.81
2018-07-02T05:49:05.766Z,47.2
2018-07-02T05:49:31.277Z,47.2
2018-07-02T05:49:56.807Z,47
2018-07-02T05:50:22.283Z,46.72
2018-07-02T05:50:47.790Z,46.62
2018-07-02T05:51:13.272Z,46.53
2018-07-02T05:51:38.781Z,46.91
2018-07-02T05:52:04.279Z,46.53
2018-07-02T05:52:29.770Z,46.33
2018-07-02T05:52:55.253Z,46.53
2018-07-02T05:53:20.745Z,46.81
2018-07-02T05:53:46.238Z,46.53
2018-07-02T05:54:11.765Z,46.45
2018-07-02T05:54:37.248Z,46.74
2018-07-02T05:55:02.750Z,46.45
2018-07-02T05:55:28.242Z,45.68
2018-07-02T05:55:53.745Z,46.36
2018-07-02T05:56:19.241Z,46.55
2018-07-02T05:56:44.742Z,46.45
2018-07-02T05:57:10.262Z,46.06
2018-07-02T05:57:35.744Z,45.59
2018-07-02T05:58:01.235Z,45.2
2018-07-02T05:58:26.745Z,45.61
2018-07-02T05:58:52.279Z,45.9
2018-07-02T05:59:17.795Z,45.9
2018-07-02T05:59:43.269Z,44.93
2018-07-02T06:00:08.833Z,44.93
2018-07-02T06:00:34.306Z,45.13
2018-07-02T06:00:59.747Z,45.13
2018-07-02T06:01:25.242Z,45.2
2018-07-02T06:01:50.760Z,45.42
2018-07-02T06:02:16.291Z,44.93
2018-07-02T06:02:41.805Z,45.03
2018-07-02T06:03:07.283Z,45.13
2018-07-02T06:03:32.776Z,44.55
2018-07-02T06:03:58.288Z,44.91
2018-07-02T06:04:23.777Z,45.01
2018-07-02T06:04:49.301Z,44.91
2018-07-02T06:05:14.798Z,45.32
2018-07-02T06:05:40.294Z,45.22
2018-07-02T08:38:27.460Z,31.57
2018-07-02T08:38:52.966Z,31.57
2018-07-02T08:39:18.467Z,31.57
2018-07-02T08:39:43.945Z,30.99
2018-07-02T08:40:09.420Z,30.02
2018-07-02T08:40:35.015Z,30.21
2018-07-02T08:41:00.512Z,30.02
2018-07-02T08:41:25.971Z,29.83
2018-07-02T08:41:51.442Z,30.11
2018-07-02T08:42:16.980Z,30.41
2018-07-02T08:42:42.465Z,30.41
2018-07-02T08:43:07.968Z,30.89
2018-07-02T08:43:33.481Z,30.69
2018-07-02T08:43:59.036Z,30.2
2018-07-02T08:44:24.472Z,29.92
2018-07-02T08:44:49.950Z,30.1
2018-07-02T08:45:15.439Z,30
2018-07-02T08:45:40.957Z,30.1
2018-07-02T08:46:06.460Z,30.78
2018-07-02T08:46:31.953Z,31.46
2018-07-02T08:46:57.465Z,31.25
2018-07-02T08:47:22.976Z,31.16
2018-07-02T08:47:48.469Z,31.65
2018-07-02T08:48:14.012Z,31.73
2018-07-02T08:48:39.513Z,31.65
2018-07-02T08:49:05.002Z,31.26
2018-07-02T08:49:30.522Z,31.36
2018-07-02T08:49:55.996Z,30.66
2018-07-02T08:50:21.491Z,30.86
2018-07-02T08:50:46.972Z,30.28
2018-07-02T08:51:12.462Z,30.76
2018-07-02T08:51:37.981Z,31.25
2018-07-02T08:52:03.481Z,31.25
2018-07-02T08:52:28.968Z,31.44
2018-07-02T08:52:54.475Z,31.54
2018-07-02T08:53:19.950Z,31.63
2018-07-02T08:53:45.439Z,31.34
2018-07-02T08:54:10.929Z,31.25
2018-07-02T08:54:36.462Z,31.25
2018-07-02T08:55:01.955Z,30.76
2018-07-02T08:55:27.452Z,31.25
2018-07-02T08:55:52.950Z,30.76
2018-07-02T08:56:18.442Z,31.15
2018-07-02T08:56:43.955Z,30.96
2018-07-02T08:57:09.769Z,31.05
2018-07-02T08:57:35.302Z,31.15
2018-07-02T08:58:00.831Z,30.98
2018-07-02T08:58:26.329Z,31.25
2018-07-02T08:58:51.830Z,31.16
2018-07-02T08:59:17.325Z,31.46
2018-07-02T08:59:42.827Z,31.46
2018-07-02T09:00:08.309Z,31.07
2018-07-02T09:00:33.791Z,31.16
2018-07-02T09:00:59.297Z,31.47
2018-07-02T09:01:24.814Z,31.28
2018-07-02T09:01:50.297Z,31.09
2018-07-02T09:02:15.778Z,31.28
2018-07-02T09:02:41.294Z,30.51
2018-07-02T09:03:06.807Z,30.78
2018-07-02T09:03:32.332Z,31.16
2018-07-02T09:03:57.822Z,31.07
2018-07-02T09:04:23.327Z,31.26
2018-07-02T09:04:48.837Z,31.36
2018-07-02T09:05:14.329Z,31.37
2018-07-02T09:05:39.809Z,31.28
2018-07-02T09:06:05.315Z,31.36
2018-07-02T09:06:30.834Z,30.99
2018-07-02T09:06:56.360Z,30.29
2018-07-02T09:07:21.872Z,30.21
2018-07-02T09:07:47.359Z,30.29
2018-07-02T09:08:12.935Z,30.2
2018-07-02T09:08:38.484Z,30.2
2018-07-02T09:09:04.194Z,30.29
2018-07-02T09:09:29.867Z,30.1
2018-07-02T09:09:55.367Z,30.39
2018-07-02T09:10:20.857Z,30.29
2018-07-02T09:10:46.334Z,30.78
2018-07-02T09:11:11.826Z,30.39
2018-07-02T09:11:37.309Z,30.49
2018-07-02T09:12:02.864Z,31.07
2018-07-02T09:12:28.333Z,31.16
2018-07-02T09:12:53.837Z,31.07
2018-07-02T09:13:19.313Z,31.46
2018-07-02T09:13:44.820Z,30.98
2018-07-02T09:14:10.324Z,31.28
2018-07-02T09:14:35.862Z,31.09
2018-07-02T09:15:01.370Z,31.09
2018-07-02T09:15:26.851Z,31.36
2018-07-02T09:15:52.331Z,30.69
2018-07-02T09:16:17.883Z,30.68
2018-07-02T09:16:43.396Z,31.18
2018-07-02T09:17:08.896Z,31.18
2018-07-02T09:17:34.357Z,31.37
2018-07-02T09:17:59.857Z,31.09
2018-07-02T09:18:25.340Z,31.28
2018-07-02T09:18:50.843Z,31.18
2018-07-02T09:19:44.471Z,31.09
2018-07-02T09:20:09.967Z,31.28
2018-07-02T09:20:35.486Z,30.99
2018-07-02T09:21:00.957Z,31.28
2018-07-02T09:21:26.465Z,30.41
2018-07-02T09:21:51.940Z,30.31
2018-07-02T09:22:17.426Z,30.51
2018-07-02T09:22:42.915Z,30.21
2018-07-02T09:23:08.456Z,30.21
2018-07-02T09:23:33.986Z,29.92
2018-07-02T09:23:59.779Z,30.31
2018-07-02T09:24:25.255Z,30.51
2018-07-02T09:24:50.832Z,31.37
2018-07-02T09:25:16.355Z,31.86
2018-07-02T09:25:41.870Z,31.09
2018-07-02T09:26:07.378Z,31.18
2018-07-02T09:26:32.874Z,30.51
2018-07-02T09:26:58.455Z,29.84
2018-07-02T09:27:23.963Z,30.32
2018-07-02T09:27:49.451Z,30.32
2018-07-02T09:28:14.958Z,30.52
2018-07-02T09:28:40.578Z,31.1
2018-07-02T09:29:06.005Z,31.1
2018-07-02T09:29:31.500Z,31.2
2018-07-02T09:29:56.991Z,31.2
2018-07-02T09:30:22.587Z,30.34
2018-07-02T09:31:35.981Z,30.15
2018-07-02T09:32:01.484Z,30.05
2018-07-02T09:32:26.969Z,30.15
2018-07-02T09:32:52.457Z,30.24
2018-07-02T09:33:17.932Z,29.85
2018-07-02T09:33:43.469Z,29.66
2018-07-02T09:34:08.995Z,29.94
2018-07-02T09:34:34.494Z,29.46
2018-07-02T09:35:00.022Z,29.36
2018-07-02T09:35:25.527Z,29.63
2018-07-02T09:35:51.016Z,29.64
2018-07-02T09:36:16.510Z,29.83
2018-07-02T09:36:41.990Z,30.11
2018-07-02T09:37:07.514Z,29.92
2018-07-02T09:37:33.006Z,30.11
2018-07-02T09:37:58.526Z,30.21
2018-07-02T09:38:23.983Z,29.83
2018-07-02T09:38:49.487Z,30.21
2018-07-02T09:39:14.995Z,30.69
2018-07-02T09:39:40.476Z,31.09
2018-07-02T09:40:05.957Z,30.69
2018-07-02T09:40:31.420Z,31.47
2018-07-02T09:40:56.886Z,31.37
2018-07-02T09:41:22.358Z,31.28
2018-07-02T09:41:47.837Z,30.91
2018-07-02T09:42:13.321Z,31.29
2018-07-02T09:42:38.844Z,30.32
2018-07-02T09:43:04.301Z,29.74
2018-07-02T09:43:29.830Z,29.55
2018-07-02T09:43:55.347Z,28.68
2018-07-02T09:44:21.035Z,28.68
2018-07-02T09:44:46.421Z,28.77
2018-07-02T09:45:11.971Z,28.97
2018-07-02T09:45:37.445Z,28.87
2018-07-02T09:46:02.981Z,28.77
2018-07-02T09:46:28.541Z,29.84
2018-07-02T09:46:54.072Z,29.84
2018-07-02T09:47:19.655Z,29.55
2018-07-02T09:47:45.138Z,29.94
2018-07-02T09:48:10.660Z,29.74
2018-07-02T09:48:36.246Z,29.94
2018-07-02T09:49:01.769Z,29.84
2018-07-02T09:49:27.391Z,30.04
2018-07-02T09:49:52.930Z,29.94
2018-07-02T09:50:18.534Z,29.85
2018-07-02T09:50:44.034Z,29.94
2018-07-02T09:51:09.588Z,30.04
2018-07-02T09:51:35.122Z,29.64
2018-07-02T09:52:00.655Z,30.23
2018-07-02T09:52:26.135Z,29.84
2018-07-02T09:52:51.674Z,29.94
2018-07-02T09:53:17.160Z,30.23
2018-07-02T09:53:42.666Z,30.04
2018-07-02T09:54:08.215Z,29.94
2018-07-02T09:54:33.710Z,29.95
2018-07-02T09:54:59.214Z,29.66
2018-07-02T09:55:24.737Z,29.85
2018-07-02T09:55:50.217Z,28.68
2018-07-02T09:56:15.718Z,29.06
2018-07-02T09:56:41.233Z,28.77
2018-07-02T09:57:06.777Z,29.46
2018-07-02T09:57:32.356Z,29.46
2018-07-02T09:57:57.886Z,29.46
2018-07-02T09:58:23.383Z,28.58
2018-07-02T09:58:48.922Z,28.77
2018-07-02T09:59:14.412Z,28.87
2018-07-02T09:59:39.969Z,28.77
2018-07-02T10:00:05.488Z,29.26
2018-07-02T10:00:30.988Z,29.55
2018-07-02T10:00:56.643Z,29.73
2018-07-02T10:01:22.018Z,29.73
2018-07-02T10:01:47.481Z,29.53
2018-07-02T10:02:12.981Z,29.44
2018-07-02T10:02:38.485Z,29.53
2018-07-02T10:03:04.025Z,29.63
2018-07-02T10:03:29.506Z,29.92
2018-07-02T10:03:55.008Z,30.11
2018-07-02T10:04:20.571Z,30.02
2018-07-02T10:04:46.060Z,30.31
2018-07-02T10:05:11.582Z,30.02
2018-07-02T10:05:37.088Z,30.21
2018-07-02T10:06:02.565Z,29.73
2018-07-02T10:06:28.272Z,29.83
2018-07-02T10:06:53.626Z,29.73
2018-07-02T10:07:19.223Z,29.83
2018-07-02T10:07:44.653Z,29.83
2018-07-02T10:08:10.188Z,30.02
2018-07-02T10:08:35.688Z,29.92
2018-07-02T10:09:01.187Z,30.21
2018-07-02T10:09:26.680Z,30.11
2018-07-02T10:09:52.180Z,30.21
2018-07-02T10:10:17.776Z,30.02
2018-07-02T10:10:43.207Z,30.13
2018-07-02T10:11:08.717Z,30.04
2018-07-02T10:11:34.243Z,29.94
2018-07-02T10:11:59.750Z,30.04
2018-07-02T10:12:25.259Z,30.04
2018-07-02T10:12:50.799Z,30.32
2018-07-02T10:13:16.251Z,30.71
2018-07-02T10:13:41.792Z,30.32
2018-07-02T10:14:07.286Z,30.13
2018-07-02T10:14:32.783Z,29.64
2018-07-02T10:14:58.337Z,29.84
2018-07-02T10:15:56.415Z,30.13
2018-07-02T10:16:21.903Z,29.74
2018-07-02T10:16:47.404Z,30.04
2018-07-02T10:17:12.906Z,30.04
2018-07-02T10:17:38.404Z,29.94
2018-07-02T10:18:03.968Z,30.32
2018-07-02T10:18:29.480Z,30.32
2018-07-02T10:18:54.969Z,30.31
2018-07-02T10:19:20.438Z,29.92
2018-07-02T10:20:13.431Z,30.04
2018-07-02T10:20:38.899Z,30.21
2018-07-02T10:21:04.393Z,29.92
2018-07-02T10:21:29.888Z,30.21
2018-07-02T10:21:55.418Z,30.31
2018-07-02T10:22:20.927Z,30.31
2018-07-02T10:22:46.418Z,30.41
2018-07-02T10:23:12.013Z,30.31
2018-07-02T10:23:37.640Z,31.28
2018-07-02T10:24:03.122Z,31.37
2018-07-02T10:24:28.642Z,30.41
2018-07-02T10:24:54.190Z,30.51
2018-07-02T10:25:19.645Z,30.6
2018-07-02T10:25:45.158Z,30.41
2018-07-02T10:26:10.684Z,30.41
2018-07-02T10:26:36.240Z,30.41
2018-07-02T10:27:01.765Z,30.31
2018-07-02T10:27:27.279Z,29.92
2018-07-02T10:27:52.841Z,30.41
2018-07-02T10:28:18.380Z,30.41
2018-07-02T10:28:43.891Z,30.6
2018-07-02T10:29:09.425Z,30.6
2018-07-02T10:29:34.901Z,30.69
2018-07-02T10:30:00.463Z,30.6
2018-07-02T10:30:26.007Z,30.51
2018-07-02T10:30:51.573Z,31.37
2018-07-02T10:31:17.085Z,30.31
2018-07-02T10:31:42.574Z,30.02
2018-07-02T10:32:08.141Z,30.02
2018-07-02T10:32:33.671Z,30.11
2018-07-02T10:32:59.211Z,30.11
2018-07-02T10:33:24.658Z,29.84
2018-07-02T10:34:28.784Z,29.94
2018-07-02T10:34:54.340Z,30.13
2018-07-02T10:35:19.770Z,29.94
2018-07-02T10:35:45.281Z,30.23
2018-07-02T10:36:10.766Z,30.13
2018-07-02T10:36:36.309Z,29.16
2018-07-02T10:37:01.868Z,28.58
2018-07-02T10:37:27.394Z,28.68
2018-07-02T10:37:52.865Z,28.68
2018-07-02T10:38:18.391Z,28.96
2018-07-02T10:38:43.892Z,29.24
2018-07-02T10:39:09.400Z,29.24
2018-07-02T10:39:34.907Z,28.96
2018-07-02T10:40:00.459Z,28.76
2018-07-02T10:40:25.974Z,28.66
2018-07-02T10:40:51.454Z,28.47
2018-07-02T10:41:16.998Z,28.76
2018-07-02T10:41:42.465Z,29.34
2018-07-02T10:42:08.082Z,29.63
2018-07-02T10:42:33.622Z,30.11
2018-07-02T10:42:59.124Z,29.92
2018-07-02T10:43:57.192Z,29.53
2018-07-02T10:44:22.682Z,29.73
2018-07-02T10:44:48.246Z,30.11
2018-07-02T10:45:13.730Z,29.73
2018-07-02T10:45:39.253Z,29.63
2018-07-02T10:46:04.728Z,29.63
2018-07-02T10:46:30.283Z,29.34
2018-07-02T10:46:55.837Z,29.53
2018-07-02T10:47:21.340Z,29.53
2018-07-02T10:47:46.905Z,29.53
2018-07-02T10:48:12.392Z,30.11
2018-07-02T10:48:37.881Z,30.02
2018-07-02T10:49:03.393Z,30.02
2018-07-02T10:50:11.702Z,30.02
2018-07-02T10:50:37.216Z,30.11
2018-07-02T10:51:02.668Z,30.21
2018-07-02T10:51:28.169Z,30.11
2018-07-02T10:51:53.659Z,30.02
2018-07-02T10:52:19.196Z,30.51
2018-07-02T10:52:44.706Z,30.99
2018-07-02T10:53:10.290Z,30.31
2018-07-02T10:53:35.775Z,29.83
2018-07-02T10:54:01.290Z,30.02
2018-07-02T10:54:26.988Z,30.11
2018-07-02T10:54:52.553Z,29.84
2018-07-02T10:55:18.047Z,30.04
2018-07-02T10:55:43.649Z,29.84
2018-07-02T10:56:09.176Z,30.04
2018-07-02T10:56:34.679Z,29.64
2018-07-02T10:57:00.208Z,29.55
2018-07-02T10:57:25.858Z,29.64
2018-07-02T10:57:51.369Z,29.46
2018-07-02T10:58:16.957Z,28.58
2018-07-02T10:58:42.588Z,28.49
2018-07-02T10:59:08.216Z,28.86
2018-07-02T10:59:33.805Z,28.86
2018-07-02T10:59:59.339Z,29.44
2018-07-02T11:01:13.248Z,29.44
2018-07-02T11:01:38.735Z,29.44
2018-07-02T11:02:04.275Z,28.68
2018-07-02T11:02:29.904Z,28.77
2018-07-02T11:02:55.565Z,29.16
2018-07-02T11:03:21.112Z,28.68
2018-07-02T11:03:46.649Z,28.68
2018-07-02T11:04:12.162Z,28.87
2018-07-02T11:04:37.731Z,29.46
2018-07-02T11:05:03.386Z,29.36
2018-07-02T11:05:28.947Z,28.76
2018-07-02T11:05:54.443Z,29.24
2018-07-02T11:06:20.157Z,28.86
2018-07-02T11:06:45.752Z,28.56
2018-07-02T11:07:11.269Z,28.66
2018-07-02T11:07:36.834Z,29.24
2018-07-02T11:08:02.388Z,28.86
2018-07-02T11:08:27.904Z,28.97
2018-07-02T11:08:53.498Z,28.66
2018-07-02T11:09:19.093Z,28.68
2018-07-02T11:09:44.733Z,28.87
2018-07-02T11:10:10.234Z,28.68
2018-07-02T11:10:35.770Z,28.58
2018-07-02T11:11:01.401Z,28.58
2018-07-02T11:11:26.965Z,28.77
2018-07-02T11:11:52.526Z,29.16
2018-07-02T11:12:17.998Z,28.68
2018-07-02T11:12:43.655Z,28.97
2018-07-02T11:13:09.236Z,28.58
2018-07-02T11:13:34.748Z,29.46
2018-07-02T11:14:00.289Z,29.26
2018-07-02T11:14:25.825Z,29.06
2018-07-02T11:14:51.388Z,29.26
2018-07-02T11:15:16.985Z,29.46
2018-07-02T11:15:42.469Z,28.97
2018-07-02T11:16:07.981Z,28.87
2018-07-02T11:16:33.523Z,28.68
2018-07-02T11:16:59.053Z,28.58
2018-07-02T11:17:24.647Z,28.77
2018-07-02T11:17:50.274Z,29.55
2018-07-02T11:18:15.764Z,29.74
2018-07-02T11:18:41.288Z,29.84
2018-07-02T11:19:06.907Z,29.94
2018-07-02T11:19:32.433Z,29.16
2018-07-02T11:19:58.029Z,28.77
2018-07-02T11:20:23.547Z,28.49
2018-07-02T11:20:49.045Z,28.68
2018-07-02T11:21:14.557Z,28.77
2018-07-02T11:21:40.105Z,28.68
2018-07-02T11:22:05.694Z,28.87
2018-07-02T11:22:31.193Z,28.69
2018-07-02T11:22:56.643Z,28.77
2018-07-02T11:23:22.212Z,28.69
2018-07-02T11:23:47.699Z,28.2
2018-07-02T11:24:13.241Z,28.79
2018-07-02T11:24:38.771Z,28.89
2018-07-02T11:25:04.315Z,28.79
2018-07-02T11:25:29.782Z,28.69
2018-07-02T11:25:55.461Z,28.79
2018-07-02T11:26:20.989Z,29.27
2018-07-02T11:26:46.548Z,28.69
2018-07-02T11:27:12.031Z,29.37
2018-07-02T11:27:37.626Z,29.66
2018-07-02T11:28:03.114Z,29.85
2018-07-02T11:28:28.613Z,29.85
2018-07-02T11:28:54.120Z,29.85
2018-07-02T11:29:19.720Z,29.76
2018-07-02T11:29:45.219Z,29.66
2018-07-02T11:30:10.772Z,29.66
2018-07-02T11:30:36.292Z,29.66
2018-07-02T11:31:01.816Z,29.76
2018-07-02T11:31:27.365Z,29.85
2018-07-02T11:31:52.865Z,29.95
2018-07-02T11:32:18.465Z,30.15
2018-07-02T11:32:44.781Z,29.95
2018-07-02T11:33:10.350Z,30.34
2018-07-02T11:33:35.904Z,30.34
2018-07-02T11:34:01.485Z,30.54
2018-07-02T11:34:27.069Z,30.15
2018-07-02T11:34:52.606Z,30.05
2018-07-02T11:35:18.191Z,29.95
2018-07-02T11:35:43.798Z,30.15
2018-07-02T11:36:09.375Z,30.34
2018-07-02T11:36:34.978Z,30.44
2018-07-02T11:37:00.549Z,30.24
2018-07-02T11:37:26.101Z,30.05
2018-07-02T11:37:51.617Z,30.15
2018-07-02T11:38:17.135Z,29.95
2018-07-02T11:38:42.690Z,30.34
2018-07-02T11:39:08.204Z,30.24
2018-07-02T11:39:33.718Z,30.24
2018-07-02T11:39:59.402Z,29.95
2018-07-02T11:41:03.068Z,30.63
2018-07-02T11:41:28.655Z,31.31
2018-07-02T11:41:54.098Z,30.92
2018-07-02T11:42:19.675Z,31.31
2018-07-02T11:42:45.188Z,31.31
2018-07-02T11:43:10.768Z,29.95
2018-07-02T11:43:36.384Z,30.05
2018-07-02T11:44:01.945Z,29.85
2018-07-02T11:44:27.566Z,30.15
2018-07-02T11:44:53.088Z,29.85
2018-07-02T11:45:18.672Z,30.15
2018-07-02T11:45:44.189Z,30.15
2018-07-02T11:46:09.696Z,30.15
2018-07-02T11:46:35.210Z,30.16
2018-07-02T11:47:00.690Z,30.15
2018-07-02T11:47:26.170Z,29.85
2018-07-02T11:47:51.710Z,30.05
2018-07-02T11:48:17.281Z,30.05
2018-07-02T11:48:42.829Z,30.07
2018-07-02T11:49:46.069Z,28.79
2018-07-02T11:50:11.473Z,29.08
2018-07-02T11:50:36.987Z,29.66
2018-07-02T11:51:02.469Z,29.95
2018-07-02T11:51:27.977Z,29.76
2018-07-02T11:51:53.480Z,29.85
2018-07-02T11:52:19.032Z,30.05
2018-07-02T11:52:44.544Z,29.85
2018-07-02T11:53:10.058Z,29.76
2018-07-02T11:53:35.655Z,29.95
2018-07-02T11:54:01.132Z,30.15
2018-07-02T11:54:26.648Z,30.15
2018-07-02T11:54:52.190Z,30.15
2018-07-02T11:55:17.660Z,29.95
2018-07-02T11:55:43.147Z,30.23
2018-07-02T11:56:08.606Z,30.92
2018-07-02T11:56:34.115Z,30.62
2018-07-02T11:56:59.649Z,30.34
2018-07-02T11:57:25.192Z,30.04
2018-07-02T11:57:50.685Z,29.94
2018-07-02T11:58:16.224Z,29.64
2018-07-02T11:58:41.741Z,30.32
2018-07-02T11:59:07.302Z,30.32
2018-07-02T11:59:32.800Z,30.52
2018-07-02T11:59:58.350Z,30.71
2018-07-02T12:00:23.875Z,30.52
2018-07-02T12:00:49.417Z,30.71
2018-07-02T12:01:14.977Z,30.71
2018-07-02T12:01:40.574Z,30.71
2018-07-02T12:02:06.114Z,30.71
2018-07-02T12:02:31.689Z,30.62
2018-07-02T12:02:57.305Z,30.71
2018-07-02T12:03:22.877Z,30.71
2018-07-02T12:03:48.432Z,31.29
2018-07-02T12:04:14.118Z,31.01
2018-07-02T12:04:39.527Z,31.39
2018-07-02T12:05:05.095Z,31.39
2018-07-02T12:05:30.631Z,31.1
2018-07-02T12:05:56.191Z,30.91
2018-07-02T12:06:21.772Z,31.01
2018-07-02T12:06:47.284Z,30.91
2018-07-02T12:07:12.876Z,31.29
2018-07-02T12:07:38.397Z,31.29
2018-07-02T12:08:03.900Z,31.41
2018-07-02T12:08:29.436Z,31.41
2018-07-02T12:08:54.890Z,31.02
2018-07-02T12:09:49.137Z,31.02
2018-07-02T12:10:14.662Z,30.92
2018-07-02T12:10:40.157Z,30.05
2018-07-02T12:11:05.705Z,30.04
2018-07-02T12:11:31.232Z,29.84
2018-07-02T12:11:56.788Z,29.46
2018-07-02T12:12:22.382Z,29.64
2018-07-02T12:12:47.900Z,29.94
2018-07-02T12:13:13.453Z,29.84
2018-07-02T12:13:38.981Z,29.55
2018-07-02T12:14:04.524Z,29.26
2018-07-02T12:14:29.994Z,29.24
2018-07-02T12:14:55.550Z,29.53
2018-07-02T12:15:21.081Z,29.83
2018-07-02T12:15:46.563Z,29.63
2018-07-02T12:16:12.086Z,29.44
2018-07-02T12:16:37.599Z,29.53
2018-07-02T12:17:03.053Z,29.34
2018-07-02T12:17:29.502Z,29.44
2018-07-02T12:17:55.010Z,29.53
2018-07-02T12:18:20.474Z,29.63
2018-07-02T12:18:46.009Z,29.34
2018-07-02T12:19:13.336Z,29.53
2018-07-02T12:19:38.832Z,29.83
2018-07-02T12:20:04.362Z,30.11